Terminal Aerodrome Forecast
Issued by NWS Jacksonville, FL

Home | Current Version | Previous Version | Text Only | Print | Product List | Glossary On
Versions: 1 2 3 4 5 6 7 8 9 10 11 12 13 14 15 16 17 18 19 20 21 22 23 24 25 26 27 28 29 30 31 32
266
FTUS42 KJAX 250520
TAFJAX
TAF
KJAX 250520Z 2506/2606 22006KT P6SM FEW060 FEW150 SCT250
     FM251400 25007KT P6SM VCSH SCT025 BKN100 BKN250
     FM251900 25009KT P6SM VCTS BKN040CB BKN100
     FM260200 24004KT P6SM SCT100 BKN250=

USA.gov is the U.S. government's official web portal to all federal, state and local government web resources and services.